Time;durP1;ratioP1;P1;durP2;ratioP2;P2;SDS_P1;SDS_P2;PMS_P1;PMS_P2;Temp;Humidity;BMP_temperature;BMP_pressure;BME280_temperature;BME280_humidity;BME280_pressure;Samples;Min_cycle;Max_cycle;Signal;HPM_P1;HPM_P2
2021/09/11 00:01:38;;;;;;;19.67;15.40;;;;;;;17.98;72.67;100526.65;1723013;83;21790;-79
2021/09/11 00:04:04;;;;;;;24.70;14.68;;;;;;;17.93;72.67;100518.39;1723014;83;21001;-79
2021/09/11 00:06:30;;;;;;;18.67;14.30;;;;;;;17.89;72.72;100522.03;1723029;83;21407;-79
2021/09/11 00:08:56;;;;;;;22.85;14.90;;;;;;;17.86;72.74;100520.28;1723165;83;21053;-80
2021/09/11 00:11:22;;;;;;;21.45;16.23;;;;;;;17.82;72.76;100519.05;1737742;81;20995;-79
2021/09/11 00:13:48;;;;;;;20.45;16.73;;;;;;;17.81;72.78;100523.62;1752919;81;21022;-80
2021/09/11 00:16:14;;;;;;;21.73;15.85;;;;;;;17.80;72.80;100521.16;1763995;80;20987;-80
2021/09/11 00:18:41;;;;;;;27.30;15.45;;;;;;;17.79;72.84;100526.23;1763827;81;21035;-79
2021/09/11 00:21:07;;;;;;;20.65;15.25;;;;;;;17.77;72.86;100525.59;1764344;80;20978;-79
2021/09/11 00:23:33;;;;;;;21.57;14.78;;;;;;;17.76;72.89;100519.92;1762824;81;21484;-80
2021/09/11 00:25:59;;;;;;;18.85;14.40;;;;;;;17.74;72.92;100521.98;1760094;80;21099;-79
2021/09/11 00:28:26;;;;;;;22.62;13.88;;;;;;;17.74;72.95;100520.63;1721881;83;21001;-79
2021/09/11 00:30:52;;;;;;;19.35;14.35;;;;;;;17.73;72.96;100514.95;1720614;82;21030;-79
2021/09/11 00:33:18;;;;;;;19.35;14.68;;;;;;;17.72;72.99;100517.34;1718713;83;21033;-79
2021/09/11 00:35:44;;;;;;;19.37;14.38;;;;;;;17.68;73.01;100513.41;1719384;82;21104;-79
2021/09/11 00:38:10;;;;;;;20.60;13.83;;;;;;;17.65;73.04;100512.48;1719553;83;21738;-79
2021/09/11 00:40:36;;;;;;;15.58;13.22;;;;;;;17.59;73.09;100506.05;1720512;81;20990;-79
2021/09/11 00:43:03;;;;;;;20.10;14.10;;;;;;;17.57;73.13;100507.31;1761078;80;21043;-80
2021/09/11 00:45:29;;;;;;;19.87;13.75;;;;;;;17.54;73.17;100507.20;1761078;81;21035;-79
2021/09/11 00:47:55;;;;;;;23.87;14.70;;;;;;;17.51;73.22;100508.14;1761198;81;21027;-79
2021/09/11 00:50:20;;;;;;;22.05;15.15;;;;;;;17.46;73.24;100504.20;1760764;81;21166;-79
2021/09/11 00:52:47;;;;;;;22.20;15.32;;;;;;;17.44;73.30;100510.86;1782005;80;20987;-79
2021/09/11 00:55:13;;;;;;;20.62;15.38;;;;;;;17.40;73.35;100502.38;1763964;79;21011;-80
2021/09/11 00:57:42;;;;;;;20.02;14.07;;;;;;;17.35;73.38;100506.20;1759935;81;20972;-79
2021/09/11 01:00:10;;;;;;;15.55;13.83;;;;;;;17.29;73.46;100501.66;1760738;81;21271;-79
2021/09/11 01:02:36;;;;;;;23.12;15.98;;;;;;;17.27;73.51;100502.41;1759231;81;21843;-80
2021/09/11 01:05:05;;;;;;;20.92;15.55;;;;;;;17.23;73.56;100509.25;1759401;81;21004;-79
2021/09/11 01:07:31;;;;;;;;;;;;;;;17.18;73.63;100503.66;1761903;81;21039;-79
2021/09/11 01:12:43;;;;;;;22.42;14.85;;;;;;;17.20;73.75;100500.25;1855110;77;22280;-79
2021/09/11 01:15:11;;;;;;;24.80;14.43;;;;;;;17.15;73.77;100500.03;1827166;78;21081;-79
2021/09/11 01:17:42;;;;;;;18.40;13.90;;;;;;;17.13;73.79;100502.64;1790984;80;21801;-79
2021/09/11 01:20:08;;;;;;;21.85;13.18;;;;;;;17.11;73.85;100505.53;1790880;79;21427;-79
2021/09/11 01:22:35;;;;;;;17.17;12.90;;;;;;;17.12;73.88;100496.42;1790904;79;21516;-79
2021/09/11 01:25:04;;;;;;;17.40;12.58;;;;;;;17.17;73.93;100501.19;1789131;79;21006;-79
2021/09/11 01:27:30;;;;;;;15.80;11.70;;;;;;;17.24;73.90;100501.45;1781726;79;20967;-79
2021/09/11 01:30:05;;;;;;;17.32;11.70;;;;;;;17.31;73.87;100500.12;1759765;81;21231;-79
2021/09/11 01:32:32;;;;;;;14.93;11.22;;;;;;;17.40;73.83;100501.53;1759603;81;21021;-79
2021/09/11 01:34:58;;;;;;;15.85;12.50;;;;;;;17.47;73.76;100503.69;1759141;81;21445;-79
2021/09/11 01:37:24;;;;;;;18.00;12.47;;;;;;;17.58;73.70;100506.28;1761591;80;21046;-79
2021/09/11 01:39:50;;;;;;;15.25;11.97;;;;;;;17.64;73.58;100504.08;1759463;81;21077;-79
2021/09/11 01:42:17;;;;;;;18.27;12.50;;;;;;;17.68;73.48;100506.66;1759548;81;21322;-79
2021/09/11 01:44:52;;;;;;;21.68;11.88;;;;;;;17.70;73.40;100501.87;1789145;80;21467;-80
2021/09/11 01:47:18;;;;;;;13.58;10.20;;;;;;;17.71;73.30;100504.87;1766084;81;21495;-79
2021/09/11 01:49:44;;;;;;;17.27;11.12;;;;;;;17.74;73.21;100499.89;1793874;80;20986;-79
2021/09/11 01:52:11;;;;;;;16.10;11.33;;;;;;;17.78;73.12;100506.52;1765389;80;20958;-79
2021/09/11 01:54:38;;;;;;;18.57;11.35;;;;;;;17.80;73.01;100500.92;1793808;80;21127;-79
2021/09/11 01:57:06;;;;;;;12.58;10.53;;;;;;;17.79;72.93;100501.44;1826323;78;20974;-80
2021/09/11 01:59:33;;;;;;;20.15;11.83;;;;;;;17.79;72.85;100503.30;1792912;79;21470;-79
2021/09/11 02:01:59;;;;;;;16.65;12.93;;;;;;;17.74;72.80;100503.10;1792296;80;20936;-79
2021/09/11 02:04:25;;;;;;;20.77;13.55;;;;;;;17.67;72.73;100509.04;1826404;78;20976;-80
2021/09/11 02:06:51;;;;;;;21.15;13.15;;;;;;;17.59;72.73;100507.95;1793791;80;21155;-79
2021/09/11 02:09:17;;;;;;;19.70;12.30;;;;;;;17.52;72.72;100499.86;1793872;80;21230;-79
2021/09/11 02:11:44;;;;;;;20.62;12.70;;;;;;;17.47;72.71;100505.88;1766190;81;21054;-79
2021/09/11 02:14:10;;;;;;;17.60;12.37;;;;;;;17.41;72.71;100505.38;1793983;79;21060;-80
2021/09/11 02:16:36;;;;;;;18.67;13.25;;;;;;;17.38;72.71;100504.43;1767545;81;21030;-79
2021/09/11 02:19:02;;;;;;;19.70;14.10;;;;;;;17.34;72.70;100504.57;1767250;81;21157;-79
2021/09/11 02:21:28;;;;;;;21.82;14.23;;;;;;;17.27;72.73;100502.41;1793767;80;21584;-79
2021/09/11 02:23:54;;;;;;;23.38;15.15;;;;;;;17.21;72.77;100503.23;1765920;81;21003;-79
2021/09/11 02:26:20;;;;;;;24.40;16.62;;;;;;;17.16;72.80;100503.05;1793669;80;20981;-79
2021/09/11 02:28:46;;;;;;;27.75;14.85;;;;;;;17.12;72.85;100499.11;1765955;81;20872;-79
2021/09/11 02:31:13;;;;;;;27.67;17.90;;;;;;;17.06;72.88;100505.34;1793587;79;21747;-79
2021/09/11 02:33:38;;;;;;;23.80;15.08;;;;;;;16.97;72.93;100502.03;1765922;81;20891;-79
2021/09/11 02:36:05;;;;;;;23.80;15.05;;;;;;;16.91;73.00;100498.00;1793357;80;20989;-79
2021/09/11 02:38:31;;;;;;;23.10;15.00;;;;;;;16.85;73.06;100498.84;1740770;81;21072;-79
2021/09/11 02:40:57;;;;;;;22.15;14.38;;;;;;;16.80;73.11;100496.77;1793712;80;20937;-79
2021/09/11 02:43:23;;;;;;;23.60;15.30;;;;;;;16.76;73.18;100496.86;1765725;81;21067;-79
2021/09/11 02:45:49;;;;;;;22.02;14.60;;;;;;;16.70;73.27;100495.52;1793760;80;20982;-79
2021/09/11 02:48:15;;;;;;;30.00;19.73;;;;;;;16.66;73.36;100504.53;1765733;81;20868;-79
2021/09/11 02:50:41;;;;;;;31.17;18.02;;;;;;;16.62;73.41;100505.97;1793636;79;20847;-79
2021/09/11 02:53:07;;;;;;;24.10;16.52;;;;;;;16.60;73.49;100500.49;1759924;81;21030;-79
2021/09/11 02:55:33;;;;;;;17.15;12.73;;;;;;;16.58;73.53;100497.16;1793832;80;21737;-79
2021/09/11 02:57:59;;;;;;;21.65;13.88;;;;;;;16.55;73.61;100500.23;1766668;81;20978;-79
2021/09/11 03:00:25;;;;;;;22.20;13.88;;;;;;;16.52;73.68;100502.83;1767063;81;21009;-79
2021/09/11 03:02:51;;;;;;;23.55;13.88;;;;;;;16.52;73.71;100500.66;1793788;80;21052;-79
2021/09/11 03:05:17;;;;;;;20.65;13.93;;;;;;;16.50;73.76;100500.33;1765808;81;21434;-79
2021/09/11 03:07:43;;;;;;;26.48;14.78;;;;;;;16.49;73.81;100502.73;1782277;80;21076;-79
2021/09/11 03:10:10;;;;;;;20.52;13.25;;;;;;;16.45;73.86;100504.17;1763679;81;21050;-79
2021/09/11 03:12:36;;;;;;;23.18;14.38;;;;;;;16.43;73.90;100508.92;1815977;78;20994;-79
2021/09/11 03:15:03;;;;;;;16.93;13.50;;;;;;;16.41;73.97;100501.58;1793181;80;20827;-79
2021/09/11 03:17:29;;;;;;;22.77;14.65;;;;;;;16.36;74.02;100504.04;1791503;80;21010;-79
2021/09/11 03:19:55;;;;;;;23.07;14.30;;;;;;;16.31;74.07;100501.66;1825870;78;21845;-79
2021/09/11 03:22:21;;;;;;;21.57;13.95;;;;;;;16.27;74.14;100498.55;1792665;80;21018;-79
2021/09/11 03:24:47;;;;;;;21.75;14.58;;;;;;;16.25;74.19;100500.63;1793277;80;20966;-79
2021/09/11 03:27:13;;;;;;;22.05;13.45;;;;;;;16.28;74.24;100503.42;1823361;78;21022;-79
2021/09/11 03:29:39;;;;;;;20.20;13.45;;;;;;;16.28;74.25;100495.34;1823220;78;21009;-79
2021/09/11 03:32:06;;;;;;;24.30;13.35;;;;;;;16.28;74.26;100496.18;1767968;79;21079;-79
2021/09/11 03:34:33;;;;;;;21.97;13.90;;;;;;;16.29;74.29;100492.98;1792932;79;20994;-79
2021/09/11 03:36:59;;;;;;;21.50;13.30;;;;;;;16.26;74.31;100495.54;1761808;81;21020;-79
2021/09/11 03:39:26;;;;;;;19.42;14.10;;;;;;;16.26;74.35;100495.54;1792729;80;21448;-79
2021/09/11 03:41:52;;;;;;;19.42;14.35;;;;;;;16.26;74.37;100489.33;1793350;80;21061;-79
2021/09/11 03:44:18;;;;;;;23.35;12.82;;;;;;;16.23;74.40;100485.19;1792814;80;21021;-79
2021/09/11 03:46:44;;;;;;;16.20;12.15;;;;;;;16.23;74.43;100485.19;1817973;78;20995;-79
2021/09/11 03:49:10;;;;;;;17.77;12.47;;;;;;;16.21;74.47;100491.30;1760033;81;20958;-79
2021/09/11 03:51:36;;;;;;;20.55;13.20;;;;;;;16.21;74.52;100490.47;1761749;81;21068;-79
2021/09/11 03:54:02;;;;;;;18.20;12.47;;;;;;;16.20;74.57;100495.02;1793092;80;20970;-79
2021/09/11 03:56:29;;;;;;;20.45;13.85;;;;;;;16.19;74.57;100499.25;1760160;81;21080;-79
2021/09/11 03:58:55;;;;;;;23.22;14.15;;;;;;;16.17;74.64;100499.47;1761799;81;20985;-79
2021/09/11 04:01:21;;;;;;;24.82;13.85;;;;;;;16.15;74.68;100504.20;1793024;80;20951;-79
2021/09/11 04:03:47;;;;;;;20.77;12.65;;;;;;;16.15;74.72;100502.86;1785889;80;20947;-79
2021/09/11 04:06:13;;;;;;;18.25;13.03;;;;;;;16.14;74.77;100501.23;1761870;81;20994;-79
2021/09/11 04:08:39;;;;;;;19.90;12.78;;;;;;;16.13;74.81;100500.91;1792738;79;21165;-80
2021/09/11 04:11:05;;;;;;;18.25;13.40;;;;;;;16.15;74.86;100505.55;1761541;81;21037;-79
2021/09/11 04:13:33;;;;;;;20.37;12.98;;;;;;;16.16;74.89;100511.25;1770468;80;21631;-79
2021/09/11 04:15:59;;;;;;;17.35;13.18;;;;;;;16.17;74.94;100510.23;1769498;81;21038;-79
2021/09/11 04:18:26;;;;;;;22.60;14.78;;;;;;;16.21;74.98;100509.31;1769948;79;20993;-79
2021/09/11 04:20:52;;;;;;;20.25;14.45;;;;;;;16.22;75.02;100509.62;1739201;82;21093;-79
2021/09/11 04:23:18;;;;;;;20.00;15.55;;;;;;;16.26;75.08;100509.00;1769257;80;21057;-79
2021/09/11 04:25:45;;;;;;;21.73;13.00;;;;;;;16.32;75.07;100510.89;1738982;82;21045;-80
2021/09/11 04:28:11;;;;;;;17.30;13.62;;;;;;;16.39;75.08;100515.77;1769531;81;20997;-79
2021/09/11 04:30:37;;;;;;;15.83;12.25;;;;;;;16.46;75.07;100510.39;1737453;82;21022;-80
2021/09/11 04:33:03;;;;;;;15.70;11.30;;;;;;;16.49;75.09;100509.47;1759567;81;21053;-79
2021/09/11 04:35:30;;;;;;;18.55;14.13;;;;;;;16.56;75.07;100510.02;1801173;79;21561;-80
2021/09/11 04:37:59;;;;;;;16.27;12.15;;;;;;;16.62;75.05;100514.56;1823804;78;20963;-79
2021/09/11 04:40:26;;;;;;;15.58;10.85;;;;;;;16.66;75.04;100510.43;1823173;78;21449;-80
2021/09/11 04:42:54;;;;;;;17.95;11.45;;;;;;;16.73;75.06;100513.95;1823574;78;20875;-79
2021/09/11 04:45:20;;;;;;;13.83;11.30;;;;;;;16.80;75.01;100505.35;1823515;78;21122;-79
2021/09/11 04:47:46;;;;;;;15.65;10.88;;;;;;;16.88;74.97;100509.20;1802751;78;21033;-80
2021/09/11 04:50:12;;;;;;;17.73;11.60;;;;;;;16.97;74.92;100509.28;1782122;80;20974;-79
2021/09/11 04:52:38;;;;;;;15.60;12.20;;;;;;;17.11;74.84;100510.09;1823600;78;20951;-79
2021/09/11 04:55:11;;;;;;;19.80;12.73;;;;;;;17.19;74.74;100508.02;1787074;80;20951;-79
2021/09/11 04:57:35;;;;;;;20.05;11.43;;;;;;;17.41;74.77;100508.08;1822014;78;21272;-79
2021/09/11 05:00:04;;;;;;;23.98;10.55;;;;;;;17.86;74.66;100513.55;1787133;80;21420;-79
2021/09/11 05:02:30;;;;;;;17.62;9.85;;;;;;;18.35;74.47;100508.80;1808855;78;21041;-80
2021/09/11 05:04:56;;;;;;;13.78;10.32;;;;;;;18.73;74.16;100508.77;1755728;81;20979;-80
2021/09/11 05:07:23;;;;;;;18.95;10.45;;;;;;;19.12;73.85;100513.82;1790929;80;21070;-80
2021/09/11 05:09:49;;;;;;;16.65;10.15;;;;;;;19.36;73.54;100507.53;1755545;81;21178;-80
2021/09/11 05:12:15;;;;;;;15.08;9.08;;;;;;;19.59;73.26;100513.67;1792416;79;21030;-80
2021/09/11 05:14:41;;;;;;;17.40;9.78;;;;;;;19.92;73.08;100509.19;1796322;79;20941;-80
2021/09/11 05:17:07;;;;;;;22.98;10.25;;;;;;;20.48;72.66;100508.84;1796778;78;20985;-80
2021/09/11 05:19:32;;;;;;;20.82;10.30;;;;;;;20.83;72.07;100507.55;1763147;81;21580;-80
2021/09/11 05:21:58;;;;;;;17.45;10.08;;;;;;;21.09;71.57;100503.03;1764844;81;21010;-80
2021/09/11 05:24:25;;;;;;;19.00;10.32;;;;;;;21.36;71.09;100514.25;1796053;79;21499;-80
2021/09/11 05:26:51;;;;;;;19.87;8.75;;;;;;;21.56;70.50;100507.92;1765250;80;21016;-80
2021/09/11 05:29:17;;;;;;;14.38;8.35;;;;;;;21.93;69.90;100505.72;1764867;81;21112;-80
2021/09/11 05:31:43;;;;;;;18.07;8.10;;;;;;;22.01;68.88;100501.80;1764613;81;20850;-80
2021/09/11 05:34:09;;;;;;;14.25;7.87;;;;;;;21.91;68.44;100506.51;1764786;81;21287;-80
2021/09/11 05:36:35;;;;;;;18.90;7.72;;;;;;;21.75;68.25;100504.50;1764362;81;20945;-80
2021/09/11 05:39:01;;;;;;;16.70;9.00;;;;;;;21.48;68.07;100497.95;1764744;81;21044;-80
2021/09/11 05:41:27;;;;;;;10.35;8.13;;;;;;;21.22;67.94;100498.75;1790438;80;20982;-80
2021/09/11 05:43:53;;;;;;;14.60;7.45;;;;;;;21.22;67.85;100501.46;1764461;81;21434;-80
2021/09/11 05:46:20;;;;;;;17.12;7.80;;;;;;;21.17;67.56;100502.72;1795933;80;22226;-80
2021/09/11 05:48:46;;;;;;;16.55;9.20;;;;;;;21.17;67.34;100500.01;1795789;80;21014;-80
2021/09/11 05:51:12;;;;;;;10.72;7.67;;;;;;;21.35;67.22;100506.66;1796022;79;21066;-80
2021/09/11 05:53:38;;;;;;;15.50;7.97;;;;;;;21.50;66.91;100509.42;1795886;79;21544;-80
2021/09/11 05:56:04;;;;;;;13.90;7.72;;;;;;;21.72;66.71;100510.41;1796679;78;20848;-80
2021/09/11 05:58:30;;;;;;;17.25;9.10;;;;;;;22.03;66.43;100511.34;1765332;80;21747;-80
2021/09/11 06:00:56;;;;;;;15.32;7.60;;;;;;;22.28;65.99;100516.44;1764643;81;20953;-80
2021/09/11 06:03:22;;;;;;;31.07;9.05;;;;;;;22.41;65.56;100514.80;1764514;81;20977;-80
2021/09/11 06:05:49;;;;;;;12.45;7.62;;;;;;;22.51;65.28;100517.70;1764687;81;20966;-80
2021/09/11 06:08:15;;;;;;;26.57;10.70;;;;;;;22.45;64.84;100517.85;1764719;81;20981;-80
2021/09/11 06:10:41;;;;;;;14.68;8.30;;;;;;;22.52;64.59;100514.45;1764434;81;22630;-80
2021/09/11 06:13:07;;;;;;;25.05;10.15;;;;;;;22.64;64.21;100520.62;1785604;78;21010;-80
2021/09/11 06:15:33;;;;;;;9.50;6.75;;;;;;;22.74;63.76;100516.21;1737320;82;21017;-80
2021/09/11 06:17:59;;;;;;;15.28;8.45;;;;;;;22.88;63.45;100513.45;1780863;79;21048;-80
2021/09/11 06:20:25;;;;;;;20.37;8.73;;;;;;;23.01;63.10;100518.28;1795060;79;21048;-80
2021/09/11 06:22:51;;;;;;;14.65;8.68;;;;;;;23.13;62.73;100520.36;1787979;79;21727;-80
2021/09/11 06:25:17;;;;;;;11.28;7.97;;;;;;;23.32;62.40;100524.47;1758796;79;21383;-80
2021/09/11 06:27:43;;;;;;;28.35;7.75;;;;;;;23.31;62.04;100529.08;1772091;80;21702;-80
2021/09/11 06:30:11;;;;;;;19.80;7.58;;;;;;;23.19;61.75;100526.16;1791054;80;20938;-80
2021/09/11 06:32:37;;;;;;;24.90;7.72;;;;;;;23.21;61.53;100527.58;1777067;80;21042;-80
2021/09/11 06:35:05;;;;;;;20.45;7.55;;;;;;;23.30;61.20;100537.48;1823416;78;21986;-80
2021/09/11 06:37:31;;;;;;;15.55;8.53;;;;;;;23.29;60.92;100532.57;1763859;80;21389;-80
2021/09/11 06:39:58;;;;;;;14.13;7.10;;;;;;;23.37;60.78;100530.80;1808589;77;20997;-79
2021/09/11 06:42:24;;;;;;;22.98;7.40;;;;;;;23.22;60.42;100544.17;1738666;82;20985;-79
2021/09/11 06:44:50;;;;;;;19.55;8.23;;;;;;;22.92;60.11;100545.59;1759954;80;21036;-80
2021/09/11 06:47:16;;;;;;;11.10;8.20;;;;;;;22.55;60.07;100552.02;1756278;81;21887;-86
2021/09/11 06:49:42;;;;;;;11.25;8.83;;;;;;;22.26;60.06;100556.09;1771548;79;20910;-86
2021/09/11 06:52:09;;;;;;;16.07;8.50;;;;;;;22.07;60.08;100559.22;1755805;81;21490;-86
2021/09/11 06:54:36;;;;;;;14.20;8.53;;;;;;;21.85;60.10;100553.58;1799886;77;21068;-86
2021/09/11 06:57:03;;;;;;;10.80;7.55;;;;;;;21.93;60.29;100558.67;1767565;80;21074;-86
2021/09/11 06:59:29;;;;;;;13.85;8.70;;;;;;;22.02;60.26;100568.12;1801148;78;21595;-86
2021/09/11 07:01:56;;;;;;;14.33;9.08;;;;;;;21.92;60.28;100564.37;1760597;80;21041;-85
2021/09/11 07:04:22;;;;;;;17.60;8.03;;;;;;;21.75;60.40;100562.34;1801575;77;20998;-85
2021/09/11 07:06:48;;;;;;;12.07;8.70;;;;;;;21.70;60.54;100572.28;1757813;81;21441;-85
2021/09/11 07:09:14;;;;;;;11.30;8.03;;;;;;;21.59;60.63;100577.19;1802350;78;21468;-85
2021/09/11 07:11:40;;;;;;;12.03;8.93;;;;;;;21.41;60.82;100578.97;1759082;81;22096;-86
2021/09/11 07:14:06;;;;;;;19.50;10.38;;;;;;;21.34;61.02;100574.19;1772597;79;21400;-85
2021/09/11 07:16:32;;;;;;;14.95;9.45;;;;;;;21.33;61.21;100573.89;1811507;78;20975;-85
2021/09/11 07:18:58;;;;;;;24.35;10.48;;;;;;;21.36;61.36;100574.77;1811274;78;20987;-85
2021/09/11 07:21:24;;;;;;;11.93;9.20;;;;;;;21.41;61.54;100569.47;1818392;78;20975;-85
2021/09/11 07:23:50;;;;;;;14.13;9.65;;;;;;;21.54;61.71;100570.27;1786273;80;21481;-85
2021/09/11 07:26:19;;;;;;;16.85;10.25;;;;;;;21.71;61.81;100572.02;1774309;80;20997;-85
2021/09/11 07:28:49;;;;;;;12.90;9.60;;;;;;;22.11;61.91;100585.67;1807810;78;20992;-85
2021/09/11 07:31:15;;;;;;;14.53;9.45;;;;;;;22.62;61.91;100582.06;1823229;78;21059;-85
2021/09/11 07:33:41;;;;;;;11.40;7.92;;;;;;;22.95;61.72;100586.73;1780481;80;21089;-85
2021/09/11 07:36:07;;;;;;;10.28;7.20;;;;;;;23.19;61.69;100581.94;1782453;79;21772;-85
2021/09/11 07:38:37;;;;;;;8.18;7.00;;;;;;;23.27;61.45;100582.36;1779916;79;21038;-85
2021/09/11 07:41:03;;;;;;;9.80;7.42;;;;;;;23.22;61.33;100581.47;1789051;79;20995;-85
2021/09/11 07:43:29;;;;;;;8.38;6.20;;;;;;;23.11;61.27;100576.94;1789065;78;21014;-85
2021/09/11 07:45:56;;;;;;;10.50;7.00;;;;;;;23.03;61.27;100587.69;1784671;78;20992;-85
2021/09/11 07:48:22;;;;;;;9.78;6.83;;;;;;;23.13;61.39;100586.48;1777637;79;21979;-86
2021/09/11 07:50:48;;;;;;;10.85;6.83;;;;;;;23.21;61.32;100590.70;1780417;79;20884;-86
2021/09/11 07:53:15;;;;;;;9.68;6.85;;;;;;;23.35;61.31;100589.28;1777498;79;21485;-86
2021/09/11 07:55:41;;;;;;;15.88;8.10;;;;;;;23.43;61.28;100596.25;1779828;79;21750;-85
2021/09/11 07:58:08;;;;;;;10.70;6.72;;;;;;;23.44;61.19;100600.59;1754700;78;21069;-85
2021/09/11 08:00:34;;;;;;;9.40;6.20;;;;;;;23.30;61.10;100611.80;1784020;79;22012;-85
2021/09/11 08:03:00;;;;;;;12.50;6.65;;;;;;;23.19;61.10;100604.54;1784727;79;21038;-85
2021/09/11 08:05:26;;;;;;;17.75;7.22;;;;;;;23.09;61.13;100613.90;1780785;79;20900;-85
2021/09/11 08:07:52;;;;;;;18.95;7.50;;;;;;;23.14;61.20;100609.91;1779896;78;21082;-85
2021/09/11 08:10:19;;;;;;;14.47;7.85;;;;;;;23.25;61.17;100615.81;1778756;79;21088;-85
2021/09/11 08:12:46;;;;;;;10.80;7.53;;;;;;;23.29;61.14;100611.50;1801253;78;21929;-87
2021/09/11 08:15:13;;;;;;;11.05;7.37;;;;;;;23.21;61.18;100621.46;1789528;78;21049;-87
2021/09/11 08:17:39;;;;;;;9.55;7.62;;;;;;;23.13;61.25;100621.86;1803250;79;22111;-86
2021/09/11 08:20:08;;;;;;;9.33;6.85;;;;;;;23.16;61.37;100624.09;1812258;77;22478;-87
2021/09/11 08:22:34;;;;;;;11.73;7.80;;;;;;;23.08;61.46;100631.85;1778304;80;21022;-86
2021/09/11 08:25:00;;;;;;;9.83;8.13;;;;;;;23.05;61.51;100627.70;1802014;77;21832;-84
2021/09/11 08:27:26;;;;;;;10.03;7.22;;;;;;;22.89;61.59;100631.23;1780230;80;21031;-84
2021/09/11 08:29:52;;;;;;;12.33;7.28;;;;;;;22.87;61.75;100632.83;1783753;79;20900;-82
2021/09/11 08:32:18;;;;;;;10.20;7.62;;;;;;;22.89;61.86;100640.23;1783023;78;21435;-86
2021/09/11 08:34:44;;;;;;;12.90;8.33;;;;;;;23.18;62.05;100641.02;1780220;79;20996;-84
2021/09/11 08:37:10;;;;;;;10.82;8.30;;;;;;;23.41;61.94;100645.48;1785878;80;21817;-79
2021/09/11 08:39:36;;;;;;;18.75;8.33;;;;;;;23.48;61.80;100656.20;1779266;80;21061;-80
2021/09/11 08:42:03;;;;;;;11.75;7.92;;;;;;;23.43;61.84;100654.78;1781323;78;20899;-79
2021/09/11 08:44:30;;;;;;;12.07;8.78;;;;;;;23.63;61.94;100652.36;1780487;78;21060;-80
2021/09/11 08:46:57;;;;;;;10.55;8.70;;;;;;;23.65;61.77;100659.20;1785901;79;21488;-80
2021/09/11 08:49:23;;;;;;;14.50;9.33;;;;;;;23.58;61.56;100664.53;1794211;79;22569;-80
2021/09/11 08:51:51;;;;;;;12.58;8.33;;;;;;;23.54;61.47;100661.47;1792121;78;20998;-80
2021/09/11 08:54:19;;;;;;;10.82;9.33;;;;;;;23.64;61.41;100659.47;1792333;79;21005;-84
2021/09/11 08:56:48;;;;;;;12.98;8.95;;;;;;;23.63;61.34;100664.09;1795763;78;21040;-79
2021/09/11 08:59:16;;;;;;;10.38;8.70;;;;;;;23.74;61.32;100669.16;1790484;79;21427;-79
2021/09/11 09:01:43;;;;;;;19.07;9.40;;;;;;;23.71;61.10;100667.76;1782134;80;21959;-80
2021/09/11 09:04:09;;;;;;;15.83;9.15;;;;;;;23.64;60.96;100671.72;1813248;77;21542;-79
2021/09/11 09:06:36;;;;;;;10.80;8.53;;;;;;;23.52;60.82;100665.53;1804853;77;21417;-80
2021/09/11 09:09:14;;;;;;;13.98;9.60;;;;;;;23.37;60.75;100660.63;1814556;78;21369;-80
2021/09/11 09:11:46;;;;;;;12.18;7.95;;;;;;;23.28;60.79;100653.42;1777824;80;21006;-79
2021/09/11 09:14:18;;;;;;;9.35;7.40;;;;;;;23.26;60.74;100660.99;1810683;78;21699;-79
2021/09/11 09:16:50;;;;;;;16.35;7.83;;;;;;;23.23;60.73;100654.69;1814646;78;20979;-79
2021/09/11 09:19:21;;;;;;;9.65;7.60;;;;;;;23.27;60.75;100654.48;1808310;78;21069;-79
2021/09/11 09:21:50;;;;;;;8.85;8.00;;;;;;;23.35;60.60;100651.36;1806845;78;20995;-79
2021/09/11 09:24:30;;;;;;;12.30;9.60;;;;;;;23.39;60.47;100644.89;1810060;78;20957;-79
2021/09/11 09:27:05;;;;;;;14.75;9.05;;;;;;;23.44;60.30;100641.43;1781176;80;21749;-79
2021/09/11 09:29:34;;;;;;;12.68;7.75;;;;;;;23.45;60.20;100645.81;1784589;79;20990;-79
2021/09/11 09:32:00;;;;;;;15.08;8.18;;;;;;;23.44;60.07;100636.81;1783632;79;21030;-80
2021/09/11 09:34:39;;;;;;;8.80;7.58;;;;;;;23.55;60.05;100639.16;1816266;78;21003;-79
2021/09/11 09:37:13;;;;;;;11.28;8.15;;;;;;;23.52;59.93;100641.85;1772391;80;21034;-79
2021/09/11 09:39:46;;;;;;;14.87;8.15;;;;;;;23.50;59.85;100641.82;1786772;79;21856;-79
2021/09/11 09:42:15;;;;;;;13.25;8.45;;;;;;;23.60;59.83;100640.61;1793106;79;20978;-79
2021/09/11 09:44:46;;;;;;;14.13;8.63;;;;;;;23.80;59.74;100632.73;1792376;79;21042;-79
2021/09/11 09:47:16;;;;;;;13.45;8.55;;;;;;;23.94;59.55;100632.66;1794686;79;20998;-79
2021/09/11 09:49:42;;;;;;;11.05;7.45;;;;;;;24.03;59.28;100633.86;1791154;78;21018;-79
2021/09/11 09:52:08;;;;;;;10.58;8.08;;;;;;;23.93;59.10;100637.81;1753316;79;21487;-79
2021/09/11 09:54:34;;;;;;;9.40;8.33;;;;;;;23.83;59.10;100639.03;1799490;78;21037;-80
2021/09/11 09:57:00;;;;;;;11.80;8.88;;;;;;;23.86;59.06;100641.25;1779795;80;20928;-79
2021/09/11 09:59:26;;;;;;;13.25;8.53;;;;;;;23.98;58.99;100639.78;1782665;79;21000;-79
2021/09/11 10:01:52;;;;;;;12.68;8.00;;;;;;;23.94;58.82;100642.19;1782546;79;21699;-80
2021/09/11 10:04:20;;;;;;;10.38;7.37;;;;;;;23.95;58.81;100642.48;1780010;79;21928;-79
2021/09/11 10:06:57;;;;;;;9.15;7.65;;;;;;;23.98;58.69;100641.98;1781634;78;20996;-80
2021/09/11 10:09:24;;;;;;;11.53;7.85;;;;;;;24.05;58.54;100641.79;1799751;78;21445;-79
2021/09/11 10:11:51;;;;;;;10.68;8.05;;;;;;;24.21;58.32;100637.67;1809528;78;20984;-79
2021/09/11 10:14:20;;;;;;;11.80;8.00;;;;;;;24.28;58.18;100638.30;1819774;78;20959;-79
2021/09/11 10:17:02;;;;;;;8.65;7.12;;;;;;;24.38;58.04;100631.61;1776938;80;21972;-80
2021/09/11 10:19:30;;;;;;;10.53;7.45;;;;;;;24.44;57.87;100628.95;1781869;80;21023;-80
2021/09/11 10:22:22;;;;;;;8.88;7.05;;;;;;;24.36;57.74;100628.33;1785669;79;20994;-79
2021/09/11 10:24:48;;;;;;;8.55;6.37;;;;;;;24.48;57.68;100631.45;1787995;79;20983;-79
2021/09/11 10:27:25;;;;;;;9.35;6.78;;;;;;;24.65;57.44;100628.09;1781637;79;20987;-79
2021/09/11 10:29:54;;;;;;;13.95;9.03;;;;;;;24.62;57.26;100636.27;1771188;79;21814;-80
2021/09/11 10:32:36;;;;;;;;;;;;;;;24.64;57.07;100633.26;1792419;79;21033;-80
2021/09/11 10:35:12;;;;;;;8.20;6.78;;;;;;;24.66;56.94;100633.30;1774546;79;20147;-80
2021/09/11 10:37:48;;;;;;;13.75;7.00;;;;;;;24.75;56.87;100640.47;1762592;79;21562;-79
2021/09/11 10:40:20;;;;;;;7.28;5.75;;;;;;;24.82;56.78;100646.55;1765845;81;21007;-80
2021/09/11 10:43:10;;;;;;;10.48;6.83;;;;;;;24.83;56.66;100642.78;1794229;78;22371;-79
2021/09/11 10:45:58;;;;;;;10.00;6.72;;;;;;;24.91;56.59;100634.11;1792877;80;21427;-79
2021/09/11 10:48:42;;;;;;;10.30;6.08;;;;;;;25.03;56.45;100638.05;1793028;80;20954;-79
2021/09/11 10:51:29;;;;;;;7.85;5.10;;;;;;;25.09;56.40;100633.73;1761000;81;20981;-79
2021/09/11 10:54:08;;;;;;;6.90;4.55;;;;;;;24.97;56.19;100629.00;1792954;80;21612;-79
2021/09/11 10:56:51;;;;;;;6.85;4.60;;;;;;;24.93;56.02;100627.87;1761686;81;21829;-79
2021/09/11 10:59:25;;;;;;;7.33;4.50;;;;;;;24.91;55.95;100624.55;1823748;78;21328;-79
2021/09/11 11:02:16;;;;;;;5.50;4.58;;;;;;;25.14;55.82;100619.31;1816762;78;20987;-76
2021/09/11 11:04:53;;;;;;;7.92;4.45;;;;;;;25.35;55.60;100619.76;1809172;78;21069;-76
2021/09/11 11:07:24;;;;;;;5.35;4.70;;;;;;;25.34;55.39;100620.30;1821032;78;20954;-76
2021/09/11 11:10:03;;;;;;;9.20;5.42;;;;;;;25.22;55.25;100614.21;1772564;80;22299;-76
2021/09/11 11:12:33;;;;;;;21.10;5.30;;;;;;;25.02;55.27;100611.29;1747881;80;21476;-75
2021/09/11 11:15:08;;;;;;;7.87;4.65;;;;;;;24.71;55.44;100614.78;1765562;79;20911;-76
2021/09/11 11:17:36;;;;;;;6.00;5.17;;;;;;;24.41;55.59;100607.65;1761209;81;21065;-75
2021/09/11 11:20:03;;;;;;;10.18;6.15;;;;;;;24.18;55.89;100602.75;1753918;80;21078;-75